Sarasota Bradenton International Airport Sarasota,Bradenton US
ICAO: KSRQ
IATA: SRQ
Category: Large
Scheduled Services: Yes

Elevation: 30 ft
TransAlt. 18000 ft.

Airport Communications:
TAMPA APP/DEP:119.65
ASOS:134.15
ATIS:134.15
CLNC DEL:118.25
CTAF:120.1
GND:121.9
ST PETERSBURG RDO:115.2
TWR:120.1
UNICOM:122.95

KSRQ Zoom In..

If you have problems with the map follow the link
https://www.worldairports.se/pages/airport.php?
ICAO=KSRQ

Runways:

(A) RW 04 length 5009 ft width 150 ft
---- / hdg 43

(B) RW 14 length 9500 ft width 150 ft
ILS 111.30 / hdg 139

(C) RW 22 length 5009 ft width 150 ft
---- / hdg 223

(D) RW 32 length 9500 ft width 150 ft
ILS 109.70 / hdg 319

Location; KSRQ
Day. 25 / Time. 06.53 Zulu
* Altimeter: 30.03
* Temperature: 19° c. 66.2°f.
* Wind from: 340° Speed 05 kn.
Dewpoint: 18° c.
Visibility: 10 Statute Miles.
Clouds: Broken 5000 ft.
Clouds: Overcast 7000 ft.

KSRQ 250653Z AUTO 34005KT 10SM BKN050 OVC070 19/18 A3003 RMK AO2 SLP169 T01890183


Wind From 340°
Speed 05 kn.

 
 
jpsmedia worldairports.se 2020   terms of use